createdAt,value
2022-11-15T00:00:01.285Z,81.75
2022-11-15T00:05:02.804Z,75.25
2022-11-15T00:10:04.846Z,73.97
2022-11-15T00:15:06.912Z,79.10
2022-11-15T00:20:08.962Z,74.85
2022-11-15T00:25:10.368Z,73.53
2022-11-15T00:30:12.389Z,74.97
2022-11-15T00:35:13.874Z,78.05
2022-11-15T00:40:16.103Z,72.95
2022-11-15T00:45:17.654Z,73.18
2022-11-15T00:50:19.712Z,72.18
2022-11-15T00:55:21.247Z,69.20
2022-11-15T01:00:22.868Z,68.68
2022-11-15T01:05:24.339Z,70.88
2022-11-15T01:10:26.886Z,69.80
2022-11-15T01:15:28.355Z,78.63
2022-11-15T01:20:29.853Z,71.47
2022-11-15T01:25:31.251Z,64.55
2022-11-15T01:30:32.911Z,66.35
2022-11-15T01:35:34.381Z,66.85
2022-11-15T01:40:35.875Z,70.03
2022-11-15T01:45:37.443Z,72.57
2022-11-15T01:50:39.033Z,65.88
2022-11-15T01:55:40.535Z,71.63
2022-11-15T02:00:42.264Z,63.85
2022-11-15T02:05:44.876Z,65.53
2022-11-15T02:10:49.602Z,64.13
2022-11-15T02:16:30.543Z,64.30
2022-11-15T02:22:00.491Z,63.63
2022-11-15T02:27:23.613Z,67.45
2022-11-15T02:32:42.115Z,63.25
2022-11-15T02:37:53.325Z,61.07
2022-11-15T02:43:16.994Z,64.40
2022-11-15T02:48:19.424Z,68.97
2022-11-15T02:53:26.338Z,66.50
2022-11-15T02:58:49.040Z,68.57
2022-11-15T03:03:56.341Z,73.82
2022-11-15T03:09:11.029Z,70.15
2022-11-15T03:14:35.305Z,73.03
2022-11-15T03:19:45.735Z,63.97
2022-11-15T03:24:53.103Z,63.05
2022-11-15T03:30:00.576Z,66.80
2022-11-15T03:35:12.760Z,61.17
2022-11-15T03:40:15.304Z,61.70
2022-11-15T03:45:23.397Z,58.63
2022-11-15T03:50:25.976Z,60.20
2022-11-15T03:55:27.478Z,59.08
2022-11-15T04:00:30.009Z,58.67
2022-11-15T04:05:31.449Z,62.35
2022-11-15T04:10:32.956Z,61.63
2022-11-15T04:15:34.784Z,57.25
2022-11-15T04:20:54.763Z,58.67
2022-11-15T04:25:59.156Z,60.78
2022-11-15T04:31:00.652Z,58.97
2022-11-15T04:36:20.774Z,56.70
2022-11-15T04:41:23.249Z,62.53
2022-11-15T04:46:25.332Z,61.22
2022-11-15T04:51:26.819Z,58.75
2022-11-15T04:56:28.300Z,63.90
2022-11-15T05:01:29.907Z,59.35
2022-11-15T05:06:31.768Z,61.92
2022-11-15T05:11:33.254Z,63.08
2022-11-15T05:16:34.867Z,58.28
2022-11-15T05:21:37.056Z,58.88
2022-11-15T05:26:38.498Z,60.00
2022-11-15T05:31:42.262Z,66.07
2022-11-15T05:36:46.687Z,58.75
2022-11-15T05:41:51.337Z,55.90
2022-11-15T05:46:55.320Z,55.85
2022-11-15T05:51:58.544Z,57.33
2022-11-15T05:57:00.906Z,56.85
2022-11-15T06:02:02.428Z,61.75
2022-11-15T06:07:03.956Z,59.42
2022-11-15T06:12:05.635Z,56.30
2022-11-15T06:17:11.200Z,59.55
2022-11-15T06:22:12.956Z,61.15
2022-11-15T06:27:14.390Z,56.72
2022-11-15T06:32:15.819Z,57.75
2022-11-15T06:37:17.249Z,55.55
2022-11-15T06:42:18.685Z,60.75
2022-11-15T06:47:20.143Z,60.97
2022-11-15T06:52:22.675Z,65.25
2022-11-15T06:57:24.070Z,60.30
2022-11-15T07:02:25.522Z,60.95
2022-11-15T07:07:27.178Z,59.75
2022-11-15T07:12:28.684Z,59.30
2022-11-15T07:17:30.117Z,58.47
2022-11-15T07:22:31.538Z,61.22
2022-11-15T07:27:33.369Z,57.17
2022-11-15T07:32:35.538Z,60.70
2022-11-15T07:37:36.955Z,68.32
2022-11-15T07:42:53.594Z,58.60
2022-11-15T07:47:56.847Z,57.83
2022-11-15T07:53:00.047Z,52.20
2022-11-15T07:58:03.071Z,62.97
2022-11-15T08:03:12.915Z,59.92
2022-11-15T08:08:14.369Z,70.32
2022-11-15T08:13:15.994Z,66.50
2022-11-15T08:18:17.852Z,87.22
2022-11-15T08:23:19.422Z,68.55
2022-11-15T08:28:20.815Z,71.63
2022-11-15T08:33:22.288Z,75.10
2022-11-15T08:38:24.122Z,67.40
2022-11-15T08:43:25.531Z,75.95
2022-11-15T08:48:27.154Z,82.20
2022-11-15T08:53:28.606Z,76.05
2022-11-15T08:58:30.260Z,74.93
2022-11-15T09:03:32.019Z,72.15
2022-11-15T09:08:46.955Z,78.85
2022-11-15T09:13:49.236Z,72.75
2022-11-15T09:18:50.903Z,72.88
2022-11-15T09:23:53.118Z,69.05
2022-11-15T09:28:54.569Z,67.03
2022-11-15T09:33:56.303Z,63.35
2022-11-15T09:38:59.239Z,65.30
2022-11-15T09:44:39.768Z,67.00
2022-11-15T09:49:41.214Z,64.93
2022-11-15T09:54:56.332Z,58.13
2022-11-15T10:00:46.015Z,53.83
2022-11-15T10:05:32.690Z,60.28
2022-11-15T10:10:39.486Z,56.35
2022-11-15T10:15:46.264Z,56.22
2022-11-15T10:21:00.897Z,53.25
2022-11-15T10:26:07.037Z,50.50
2022-11-15T10:31:26.523Z,47.95
2022-11-15T10:36:29.527Z,52.08
2022-11-15T10:41:38.186Z,43.58
2022-11-15T10:46:47.213Z,45.55
2022-11-15T10:51:51.985Z,46.78
2022-11-15T10:56:56.886Z,34.97
2022-11-15T11:01:58.769Z,39.17
2022-11-15T11:07:01.053Z,37.10
2022-11-15T11:12:04.286Z,36.75
2022-11-15T11:17:23.639Z,34.58
2022-11-15T11:22:39.394Z,26.88
2022-11-15T11:27:52.787Z,30.88
2022-11-15T11:33:02.502Z,26.65
2022-11-15T11:38:03.852Z,24.55
2022-11-15T11:43:23.729Z,20.83
2022-11-15T11:48:46.680Z,21.35
2022-11-15T11:54:02.265Z,25.10
2022-11-15T11:59:12.027Z,23.38
2022-11-15T12:04:28.023Z,24.13
2022-11-15T12:09:39.059Z,21.17
2022-11-15T12:14:52.877Z,19.60
2022-11-15T12:19:59.552Z,18.27
2022-11-15T12:25:06.072Z,20.23
2022-11-15T12:30:15.790Z,50.80
2022-11-15T12:35:36.327Z,29.92
2022-11-15T12:40:58.999Z,26.88
2022-11-15T12:46:05.443Z,25.48
2022-11-15T12:51:06.933Z,24.38
2022-11-15T12:56:15.876Z,21.60
2022-11-15T13:01:36.161Z,20.17
2022-11-15T13:06:41.464Z,23.23
2022-11-15T13:11:49.149Z,22.73
2022-11-15T13:16:59.882Z,22.20
2022-11-15T13:22:28.035Z,24.05
2022-11-15T13:27:29.956Z,25.25
2022-11-15T13:32:31.788Z,26.80
2022-11-15T13:37:34.437Z,25.58
2022-11-15T13:42:35.872Z,29.35
2022-11-15T13:47:37.296Z,36.10
2022-11-15T13:52:41.572Z,29.67
2022-11-15T13:57:46.708Z,24.58
2022-11-15T14:02:48.226Z,29.40
2022-11-15T14:08:14.329Z,27.23
2022-11-15T14:13:30.814Z,32.20
2022-11-15T14:18:43.474Z,28.88
2022-11-15T14:23:45.549Z,31.33
2022-11-15T14:28:47.000Z,34.20
2022-11-15T14:33:48.858Z,33.03
2022-11-15T14:38:50.386Z,32.40
2022-11-15T14:43:53.070Z,38.42
2022-11-15T14:48:54.652Z,31.80
2022-11-15T14:53:56.380Z,31.40
2022-11-15T14:58:59.488Z,28.55
2022-11-15T15:04:00.947Z,31.23
2022-11-15T15:09:02.776Z,36.28
2022-11-15T15:14:04.242Z,36.65
2022-11-15T15:19:05.681Z,36.28
2022-11-15T15:24:14.416Z,33.42
2022-11-15T15:29:16.360Z,37.05
2022-11-15T15:34:17.856Z,38.30
2022-11-15T15:39:19.264Z,40.20
2022-11-15T15:44:20.730Z,44.25
2022-11-15T15:49:22.214Z,37.55
2022-11-15T15:54:23.624Z,38.72
2022-11-15T15:59:25.172Z,34.65
2022-11-15T16:04:27.036Z,36.85
2022-11-15T16:09:46.984Z,95.47
2022-11-15T16:14:48.435Z,103.05
2022-11-15T16:19:49.861Z,130.93
2022-11-15T16:24:51.296Z,113.05
2022-11-15T16:29:52.705Z,90.75
2022-11-15T16:34:55.008Z,131.43
2022-11-15T16:40:00.840Z,57.65
2022-11-15T16:45:02.608Z,65.45
2022-11-15T16:50:04.321Z,58.28
2022-11-15T16:55:06.410Z,55.17
2022-11-15T17:00:11.679Z,63.20
2022-11-15T17:05:19.750Z,60.53
2022-11-15T17:10:23.537Z,59.33
2022-11-15T17:15:25.423Z,61.47
2022-11-15T17:20:26.968Z,57.88
2022-11-15T17:25:28.396Z,62.78
2022-11-15T17:30:29.814Z,51.25
2022-11-15T17:35:31.279Z,52.47
2022-11-15T17:40:32.765Z,51.63
2022-11-15T17:45:34.665Z,57.65
2022-11-15T17:50:37.228Z,54.50
2022-11-15T17:55:38.645Z,49.10
2022-11-15T18:00:40.285Z,51.92
2022-11-15T18:05:43.813Z,51.03
2022-11-15T18:10:45.246Z,54.20
2022-11-15T18:15:55.021Z,49.28
2022-11-15T18:21:07.296Z,48.30
2022-11-15T18:26:11.911Z,53.70
2022-11-15T18:31:21.745Z,57.15
2022-11-15T18:36:26.282Z,55.47
2022-11-15T18:41:28.901Z,58.95
2022-11-15T18:46:32.310Z,60.80
2022-11-15T18:51:35.400Z,56.50
2022-11-15T18:56:37.673Z,64.80
2022-11-15T19:01:40.874Z,79.90
2022-11-15T19:06:43.940Z,80.85
2022-11-15T19:11:47.127Z,81.95
2022-11-15T19:16:55.570Z,86.32
2022-11-15T19:21:59.585Z,76.87
2022-11-15T19:27:01.067Z,77.82
2022-11-15T19:32:03.933Z,77.00
2022-11-15T19:37:05.404Z,80.10
2022-11-15T19:42:06.853Z,87.28
2022-11-15T19:47:09.353Z,84.35
2022-11-15T19:52:10.824Z,94.15
2022-11-15T19:57:12.232Z,95.25
2022-11-15T20:02:13.689Z,94.15
2022-11-15T20:07:15.133Z,109.50
2022-11-15T20:12:16.668Z,101.57
2022-11-15T20:17:18.177Z,96.00
2022-11-15T20:22:19.572Z,96.10
2022-11-15T20:27:21.008Z,93.30
2022-11-15T20:32:22.536Z,96.97
2022-11-15T20:37:24.087Z,90.63
2022-11-15T20:42:25.489Z,90.88
2022-11-15T20:47:30.448Z,90.00
2022-11-15T20:52:31.892Z,90.18
2022-11-15T20:57:33.282Z,92.43
2022-11-15T21:02:34.781Z,82.88
2022-11-15T21:07:36.327Z,87.45
2022-11-15T21:12:37.888Z,86.93
2022-11-15T21:17:39.358Z,87.55
2022-11-15T21:22:40.984Z,87.63
2022-11-15T21:27:42.409Z,86.25
2022-11-15T21:32:44.989Z,86.35
2022-11-15T21:37:47.814Z,84.55
2022-11-15T21:42:51.136Z,88.88
2022-11-15T21:47:52.535Z,92.07
2022-11-15T21:52:53.956Z,120.90
2022-11-15T21:57:55.409Z,196.27
2022-11-15T22:02:56.833Z,89.25
2022-11-15T22:07:58.439Z,104.88
2022-11-15T22:13:00.086Z,142.93
2022-11-15T22:18:01.873Z,115.50
2022-11-15T22:23:04.555Z,156.60
2022-11-15T22:28:06.232Z,119.93
2022-11-15T22:33:08.015Z,108.53
2022-11-15T22:38:10.474Z,102.05
2022-11-15T22:43:13.606Z,123.82
2022-11-15T22:48:15.924Z,105.45
2022-11-15T22:53:18.936Z,111.05
2022-11-15T22:58:22.222Z,105.28
2022-11-15T23:03:25.206Z,111.65
2022-11-15T23:08:26.956Z,108.47
2022-11-15T23:13:30.793Z,112.70
2022-11-15T23:18:37.783Z,103.47
2022-11-15T23:23:39.498Z,101.30
2022-11-15T23:28:41.161Z,100.90
2022-11-15T23:33:58.061Z,104.13
2022-11-15T23:38:59.789Z,113.57
2022-11-15T23:44:01.754Z,108.93
2022-11-15T23:49:03.954Z,103.05
2022-11-15T23:54:06.289Z,112.05
2022-11-15T23:59:08.652Z,107.88
